sensor_id;sensor_type;location;lat;lon;timestamp;P1;durP1;ratioP1;P2;durP2;ratioP2
15281;SDS011;7742;44.320;19.820;2024-02-28T00:01:08;16.13;;;14.93;;
15281;SDS011;7742;44.320;19.820;2024-02-28T00:03:35;16.00;;;15.00;;
15281;SDS011;7742;44.320;19.820;2024-02-28T00:06:02;14.93;;;13.83;;
15281;SDS011;7742;44.320;19.820;2024-02-28T00:08:29;15.77;;;14.53;;
15281;SDS011;7742;44.320;19.820;2024-02-28T00:10:56;16.10;;;15.00;;
15281;SDS011;7742;44.320;19.820;2024-02-28T00:13:23;16.47;;;15.17;;
15281;SDS011;7742;44.320;19.820;2024-02-28T00:15:51;16.93;;;15.67;;
15281;SDS011;7742;44.320;19.820;2024-02-28T00:18:18;16.07;;;14.97;;
15281;SDS011;7742;44.320;19.820;2024-02-28T00:20:45;16.23;;;15.10;;
15281;SDS011;7742;44.320;19.820;2024-02-28T00:23:12;15.87;;;14.50;;
15281;SDS011;7742;44.320;19.820;2024-02-28T00:25:39;16.00;;;14.83;;
15281;SDS011;7742;44.320;19.820;2024-02-28T00:28:05;15.50;;;14.50;;
15281;SDS011;7742;44.320;19.820;2024-02-28T00:30:32;16.83;;;15.27;;
15281;SDS011;7742;44.320;19.820;2024-02-28T00:33:01;15.43;;;14.37;;
15281;SDS011;7742;44.320;19.820;2024-02-28T00:35:28;17.03;;;15.80;;
15281;SDS011;7742;44.320;19.820;2024-02-28T00:37:55;16.00;;;14.90;;
15281;SDS011;7742;44.320;19.820;2024-02-28T00:40:22;17.73;;;16.30;;
15281;SDS011;7742;44.320;19.820;2024-02-28T00:42:50;16.87;;;15.77;;
15281;SDS011;7742;44.320;19.820;2024-02-28T00:45:17;15.17;;;14.10;;
15281;SDS011;7742;44.320;19.820;2024-02-28T00:47:44;17.00;;;15.67;;
15281;SDS011;7742;44.320;19.820;2024-02-28T00:50:12;16.07;;;14.87;;
15281;SDS011;7742;44.320;19.820;2024-02-28T00:52:39;15.03;;;13.83;;
15281;SDS011;7742;44.320;19.820;2024-02-28T00:55:06;15.07;;;13.87;;
15281;SDS011;7742;44.320;19.820;2024-02-28T00:57:33;15.03;;;14.03;;
15281;SDS011;7742;44.320;19.820;2024-02-28T01:00:00;15.43;;;14.37;;
15281;SDS011;7742;44.320;19.820;2024-02-28T01:02:28;14.47;;;13.47;;
15281;SDS011;7742;44.320;19.820;2024-02-28T01:04:55;15.13;;;14.03;;
15281;SDS011;7742;44.320;19.820;2024-02-28T01:07:24;14.97;;;13.70;;
15281;SDS011;7742;44.320;19.820;2024-02-28T01:10:04;16.90;;;15.60;;
15281;SDS011;7742;44.320;19.820;2024-02-28T01:12:31;15.73;;;14.53;;
15281;SDS011;7742;44.320;19.820;2024-02-28T01:14:59;15.87;;;14.63;;
15281;SDS011;7742;44.320;19.820;2024-02-28T01:17:26;15.43;;;14.20;;
15281;SDS011;7742;44.320;19.820;2024-02-28T01:19:53;15.60;;;14.33;;
15281;SDS011;7742;44.320;19.820;2024-02-28T01:22:29;14.80;;;13.57;;
15281;SDS011;7742;44.320;19.820;2024-02-28T01:24:55;16.07;;;14.83;;
15281;SDS011;7742;44.320;19.820;2024-02-28T01:27:22;15.93;;;14.47;;
15281;SDS011;7742;44.320;19.820;2024-02-28T01:29:50;16.00;;;14.77;;
15281;SDS011;7742;44.320;19.820;2024-02-28T01:32:24;15.27;;;14.37;;
15281;SDS011;7742;44.320;19.820;2024-02-28T01:34:51;18.13;;;16.73;;
15281;SDS011;7742;44.320;19.820;2024-02-28T01:37:18;17.80;;;16.50;;
15281;SDS011;7742;44.320;19.820;2024-02-28T01:39:46;16.20;;;14.83;;
15281;SDS011;7742;44.320;19.820;2024-02-28T01:42:13;15.73;;;14.60;;
15281;SDS011;7742;44.320;19.820;2024-02-28T01:44:42;15.83;;;14.63;;
15281;SDS011;7742;44.320;19.820;2024-02-28T01:47:10;16.37;;;14.93;;
15281;SDS011;7742;44.320;19.820;2024-02-28T01:49:37;16.00;;;14.67;;
15281;SDS011;7742;44.320;19.820;2024-02-28T01:52:04;16.10;;;14.90;;
15281;SDS011;7742;44.320;19.820;2024-02-28T01:54:31;14.90;;;13.70;;
15281;SDS011;7742;44.320;19.820;2024-02-28T01:57:01;15.33;;;14.20;;
15281;SDS011;7742;44.320;19.820;2024-02-28T01:59:29;16.40;;;15.20;;
15281;SDS011;7742;44.320;19.820;2024-02-28T02:01:56;17.33;;;15.90;;
15281;SDS011;7742;44.320;19.820;2024-02-28T02:04:23;18.90;;;17.43;;
15281;SDS011;7742;44.320;19.820;2024-02-28T02:06:50;18.93;;;17.43;;
15281;SDS011;7742;44.320;19.820;2024-02-28T02:09:19;18.23;;;16.63;;
15281;SDS011;7742;44.320;19.820;2024-02-28T02:11:46;17.77;;;16.47;;
15281;SDS011;7742;44.320;19.820;2024-02-28T02:14:14;17.50;;;15.83;;
15281;SDS011;7742;44.320;19.820;2024-02-28T02:16:55;19.33;;;17.83;;
15281;SDS011;7742;44.320;19.820;2024-02-28T02:19:22;18.43;;;16.93;;
15281;SDS011;7742;44.320;19.820;2024-02-28T02:21:49;19.23;;;17.27;;
15281;SDS011;7742;44.320;19.820;2024-02-28T02:24:20;20.10;;;18.30;;
15281;SDS011;7742;44.320;19.820;2024-02-28T02:26:47;19.67;;;18.07;;
15281;SDS011;7742;44.320;19.820;2024-02-28T02:29:17;19.97;;;18.27;;
15281;SDS011;7742;44.320;19.820;2024-02-28T02:31:44;19.57;;;17.97;;
15281;SDS011;7742;44.320;19.820;2024-02-28T02:34:13;20.43;;;18.23;;
15281;SDS011;7742;44.320;19.820;2024-02-28T02:36:39;19.73;;;17.73;;
15281;SDS011;7742;44.320;19.820;2024-02-28T02:39:06;18.50;;;17.20;;
15281;SDS011;7742;44.320;19.820;2024-02-28T02:41:35;20.37;;;18.57;;
15281;SDS011;7742;44.320;19.820;2024-02-28T02:44:02;20.47;;;18.87;;
15281;SDS011;7742;44.320;19.820;2024-02-28T02:46:30;19.00;;;17.33;;
15281;SDS011;7742;44.320;19.820;2024-02-28T02:48:57;17.63;;;15.90;;
15281;SDS011;7742;44.320;19.820;2024-02-28T02:51:23;19.40;;;17.80;;
15281;SDS011;7742;44.320;19.820;2024-02-28T02:53:50;18.47;;;16.87;;
15281;SDS011;7742;44.320;19.820;2024-02-28T02:56:19;19.30;;;17.47;;
15281;SDS011;7742;44.320;19.820;2024-02-28T02:58:47;19.50;;;17.80;;
15281;SDS011;7742;44.320;19.820;2024-02-28T03:01:14;18.40;;;16.87;;
15281;SDS011;7742;44.320;19.820;2024-02-28T03:03:41;19.10;;;17.33;;
15281;SDS011;7742;44.320;19.820;2024-02-28T03:06:08;20.17;;;18.27;;
15281;SDS011;7742;44.320;19.820;2024-02-28T03:08:35;19.03;;;17.23;;
15281;SDS011;7742;44.320;19.820;2024-02-28T03:11:02;19.97;;;17.87;;
15281;SDS011;7742;44.320;19.820;2024-02-28T03:13:32;19.93;;;18.23;;
15281;SDS011;7742;44.320;19.820;2024-02-28T03:16:01;18.23;;;16.63;;
15281;SDS011;7742;44.320;19.820;2024-02-28T03:21:34;19.47;;;17.87;;
15281;SDS011;7742;44.320;19.820;2024-02-28T03:24:20;19.13;;;17.33;;
15281;SDS011;7742;44.320;19.820;2024-02-28T03:26:54;18.37;;;16.70;;
15281;SDS011;7742;44.320;19.820;2024-02-28T03:29:21;18.63;;;17.13;;
15281;SDS011;7742;44.320;19.820;2024-02-28T03:31:49;18.80;;;17.00;;
15281;SDS011;7742;44.320;19.820;2024-02-28T03:34:16;19.63;;;17.57;;
15281;SDS011;7742;44.320;19.820;2024-02-28T03:36:43;18.50;;;17.03;;
15281;SDS011;7742;44.320;19.820;2024-02-28T03:39:10;17.90;;;16.37;;
15281;SDS011;7742;44.320;19.820;2024-02-28T03:41:37;17.87;;;16.37;;
15281;SDS011;7742;44.320;19.820;2024-02-28T03:44:04;18.37;;;16.67;;
15281;SDS011;7742;44.320;19.820;2024-02-28T03:46:31;19.07;;;17.27;;
15281;SDS011;7742;44.320;19.820;2024-02-28T03:48:59;20.33;;;18.50;;
15281;SDS011;7742;44.320;19.820;2024-02-28T03:51:26;20.27;;;18.57;;
15281;SDS011;7742;44.320;19.820;2024-02-28T03:53:53;19.57;;;18.07;;
15281;SDS011;7742;44.320;19.820;2024-02-28T03:56:23;19.37;;;17.77;;
15281;SDS011;7742;44.320;19.820;2024-02-28T03:58:50;18.67;;;17.07;;
15281;SDS011;7742;44.320;19.820;2024-02-28T04:01:17;19.93;;;18.17;;
15281;SDS011;7742;44.320;19.820;2024-02-28T04:03:44;20.30;;;18.60;;
15281;SDS011;7742;44.320;19.820;2024-02-28T04:06:13;18.67;;;17.37;;
15281;SDS011;7742;44.320;19.820;2024-02-28T04:08:40;19.67;;;17.87;;
15281;SDS011;7742;44.320;19.820;2024-02-28T04:11:07;18.57;;;17.07;;
15281;SDS011;7742;44.320;19.820;2024-02-28T04:13:34;18.67;;;17.27;;
15281;SDS011;7742;44.320;19.820;2024-02-28T04:16:01;18.13;;;16.87;;
15281;SDS011;7742;44.320;19.820;2024-02-28T04:18:28;17.27;;;15.73;;
15281;SDS011;7742;44.320;19.820;2024-02-28T04:20:55;19.30;;;17.83;;
15281;SDS011;7742;44.320;19.820;2024-02-28T04:23:24;17.97;;;16.43;;
15281;SDS011;7742;44.320;19.820;2024-02-28T04:25:57;19.43;;;17.77;;
15281;SDS011;7742;44.320;19.820;2024-02-28T04:28:24;20.27;;;18.20;;
15281;SDS011;7742;44.320;19.820;2024-02-28T04:30:51;18.90;;;17.40;;
15281;SDS011;7742;44.320;19.820;2024-02-28T04:33:18;18.63;;;17.00;;
15281;SDS011;7742;44.320;19.820;2024-02-28T04:35:45;18.73;;;17.13;;
15281;SDS011;7742;44.320;19.820;2024-02-28T04:38:12;17.47;;;15.93;;
15281;SDS011;7742;44.320;19.820;2024-02-28T04:40:40;17.03;;;15.63;;
15281;SDS011;7742;44.320;19.820;2024-02-28T04:43:07;18.33;;;16.60;;
15281;SDS011;7742;44.320;19.820;2024-02-28T04:45:35;17.73;;;16.17;;
15281;SDS011;7742;44.320;19.820;2024-02-28T04:48:06;19.37;;;17.80;;
15281;SDS011;7742;44.320;19.820;2024-02-28T04:50:46;16.57;;;15.30;;
15281;SDS011;7742;44.320;19.820;2024-02-28T04:53:33;18.20;;;16.50;;
15281;SDS011;7742;44.320;19.820;2024-02-28T04:56:02;19.43;;;17.73;;
15281;SDS011;7742;44.320;19.820;2024-02-28T04:58:29;19.27;;;17.80;;
15281;SDS011;7742;44.320;19.820;2024-02-28T05:00:56;18.73;;;17.23;;
15281;SDS011;7742;44.320;19.820;2024-02-28T05:03:23;19.13;;;17.60;;
15281;SDS011;7742;44.320;19.820;2024-02-28T05:05:50;18.10;;;16.70;;
15281;SDS011;7742;44.320;19.820;2024-02-28T05:08:17;17.70;;;16.10;;
15281;SDS011;7742;44.320;19.820;2024-02-28T05:10:44;17.40;;;15.80;;
15281;SDS011;7742;44.320;19.820;2024-02-28T05:13:13;16.50;;;15.20;;
15281;SDS011;7742;44.320;19.820;2024-02-28T05:15:39;16.90;;;15.50;;
15281;SDS011;7742;44.320;19.820;2024-02-28T05:18:06;17.60;;;16.00;;
15281;SDS011;7742;44.320;19.820;2024-02-28T05:20:33;19.07;;;17.57;;
15281;SDS011;7742;44.320;19.820;2024-02-28T05:23:00;17.27;;;15.87;;
15281;SDS011;7742;44.320;19.820;2024-02-28T05:25:27;18.00;;;16.33;;
15281;SDS011;7742;44.320;19.820;2024-02-28T05:27:54;16.77;;;15.37;;
15281;SDS011;7742;44.320;19.820;2024-02-28T05:30:22;18.33;;;16.73;;
15281;SDS011;7742;44.320;19.820;2024-02-28T05:32:49;18.43;;;16.90;;
15281;SDS011;7742;44.320;19.820;2024-02-28T05:35:16;18.87;;;17.37;;
15281;SDS011;7742;44.320;19.820;2024-02-28T05:37:44;16.63;;;15.23;;
15281;SDS011;7742;44.320;19.820;2024-02-28T05:40:12;17.37;;;15.77;;
15281;SDS011;7742;44.320;19.820;2024-02-28T05:42:39;16.87;;;15.20;;
15281;SDS011;7742;44.320;19.820;2024-02-28T05:45:08;17.17;;;15.70;;
15281;SDS011;7742;44.320;19.820;2024-02-28T05:47:37;16.70;;;15.30;;
15281;SDS011;7742;44.320;19.820;2024-02-28T05:50:04;16.33;;;15.03;;
15281;SDS011;7742;44.320;19.820;2024-02-28T05:52:31;16.80;;;15.50;;
15281;SDS011;7742;44.320;19.820;2024-02-28T05:54:58;17.10;;;15.50;;
15281;SDS011;7742;44.320;19.820;2024-02-28T05:57:26;18.33;;;16.67;;
15281;SDS011;7742;44.320;19.820;2024-02-28T05:59:53;16.50;;;15.20;;
15281;SDS011;7742;44.320;19.820;2024-02-28T06:02:20;17.60;;;16.10;;
15281;SDS011;7742;44.320;19.820;2024-02-28T06:04:49;17.63;;;15.97;;
15281;SDS011;7742;44.320;19.820;2024-02-28T06:07:16;16.93;;;15.20;;
15281;SDS011;7742;44.320;19.820;2024-02-28T06:09:43;16.80;;;15.40;;
15281;SDS011;7742;44.320;19.820;2024-02-28T06:12:10;17.63;;;16.13;;
15281;SDS011;7742;44.320;19.820;2024-02-28T06:14:37;16.30;;;14.90;;
15281;SDS011;7742;44.320;19.820;2024-02-28T06:17:05;15.47;;;14.07;;
15281;SDS011;7742;44.320;19.820;2024-02-28T06:19:32;15.43;;;14.23;;
15281;SDS011;7742;44.320;19.820;2024-02-28T06:22:01;16.10;;;14.90;;
15281;SDS011;7742;44.320;19.820;2024-02-28T06:24:28;15.57;;;14.37;;
15281;SDS011;7742;44.320;19.820;2024-02-28T06:26:55;15.53;;;14.13;;
15281;SDS011;7742;44.320;19.820;2024-02-28T06:29:21;14.53;;;13.37;;
15281;SDS011;7742;44.320;19.820;2024-02-28T06:31:50;16.10;;;14.80;;
15281;SDS011;7742;44.320;19.820;2024-02-28T06:34:17;15.97;;;14.70;;
15281;SDS011;7742;44.320;19.820;2024-02-28T06:36:44;17.23;;;15.67;;
15281;SDS011;7742;44.320;19.820;2024-02-28T06:39:13;16.00;;;14.53;;
15281;SDS011;7742;44.320;19.820;2024-02-28T06:41:40;16.17;;;14.53;;
15281;SDS011;7742;44.320;19.820;2024-02-28T06:44:07;17.73;;;16.47;;
15281;SDS011;7742;44.320;19.820;2024-02-28T06:46:34;19.03;;;17.57;;
15281;SDS011;7742;44.320;19.820;2024-02-28T06:49:01;17.00;;;15.80;;
15281;SDS011;7742;44.320;19.820;2024-02-28T06:51:28;19.27;;;17.67;;
15281;SDS011;7742;44.320;19.820;2024-02-28T06:53:55;18.30;;;16.90;;
15281;SDS011;7742;44.320;19.820;2024-02-28T06:56:23;18.40;;;16.90;;
15281;SDS011;7742;44.320;19.820;2024-02-28T06:58:50;16.20;;;14.80;;
15281;SDS011;7742;44.320;19.820;2024-02-28T07:01:17;17.43;;;15.60;;
15281;SDS011;7742;44.320;19.820;2024-02-28T07:03:46;17.77;;;16.10;;
15281;SDS011;7742;44.320;19.820;2024-02-28T07:06:13;17.80;;;16.57;;
15281;SDS011;7742;44.320;19.820;2024-02-28T07:08:40;18.70;;;16.97;;
15281;SDS011;7742;44.320;19.820;2024-02-28T07:11:12;18.10;;;16.43;;
15281;SDS011;7742;44.320;19.820;2024-02-28T07:13:41;18.17;;;16.77;;
15281;SDS011;7742;44.320;19.820;2024-02-28T07:16:08;19.80;;;18.10;;
15281;SDS011;7742;44.320;19.820;2024-02-28T07:18:35;18.03;;;16.63;;
15281;SDS011;7742;44.320;19.820;2024-02-28T07:21:02;17.03;;;15.73;;
15281;SDS011;7742;44.320;19.820;2024-02-28T07:23:33;16.07;;;14.67;;
15281;SDS011;7742;44.320;19.820;2024-02-28T07:26:00;18.80;;;17.37;;
15281;SDS011;7742;44.320;19.820;2024-02-28T07:28:27;18.70;;;17.30;;
15281;SDS011;7742;44.320;19.820;2024-02-28T07:30:57;16.97;;;15.20;;
15281;SDS011;7742;44.320;19.820;2024-02-28T07:33:25;17.03;;;15.73;;
15281;SDS011;7742;44.320;19.820;2024-02-28T07:35:52;17.17;;;15.70;;
15281;SDS011;7742;44.320;19.820;2024-02-28T07:38:19;16.70;;;15.20;;
15281;SDS011;7742;44.320;19.820;2024-02-28T07:40:47;18.40;;;17.00;;
15281;SDS011;7742;44.320;19.820;2024-02-28T07:43:14;17.30;;;15.80;;
15281;SDS011;7742;44.320;19.820;2024-02-28T07:45:41;16.37;;;15.07;;
15281;SDS011;7742;44.320;19.820;2024-02-28T07:48:09;17.30;;;15.90;;
15281;SDS011;7742;44.320;19.820;2024-02-28T07:50:37;17.53;;;16.13;;
15281;SDS011;7742;44.320;19.820;2024-02-28T07:53:07;18.03;;;16.50;;
15281;SDS011;7742;44.320;19.820;2024-02-28T07:55:34;17.67;;;16.00;;
15281;SDS011;7742;44.320;19.820;2024-02-28T07:58:00;16.83;;;15.43;;
15281;SDS011;7742;44.320;19.820;2024-02-28T08:00:27;17.33;;;15.83;;
15281;SDS011;7742;44.320;19.820;2024-02-28T08:02:54;18.60;;;17.10;;
15281;SDS011;7742;44.320;19.820;2024-02-28T08:05:23;17.47;;;16.10;;
15281;SDS011;7742;44.320;19.820;2024-02-28T08:07:50;18.67;;;17.07;;
15281;SDS011;7742;44.320;19.820;2024-02-28T08:10:17;15.90;;;14.40;;
15281;SDS011;7742;44.320;19.820;2024-02-28T08:12:44;15.77;;;14.47;;
15281;SDS011;7742;44.320;19.820;2024-02-28T08:15:11;16.83;;;15.17;;
15281;SDS011;7742;44.320;19.820;2024-02-28T08:17:38;17.43;;;16.23;;
15281;SDS011;7742;44.320;19.820;2024-02-28T08:20:05;17.90;;;16.50;;
15281;SDS011;7742;44.320;19.820;2024-02-28T08:22:35;16.23;;;14.87;;
15281;SDS011;7742;44.320;19.820;2024-02-28T08:25:02;18.10;;;16.80;;
15281;SDS011;7742;44.320;19.820;2024-02-28T08:27:29;18.03;;;16.43;;
15281;SDS011;7742;44.320;19.820;2024-02-28T08:29:56;17.53;;;16.33;;
15281;SDS011;7742;44.320;19.820;2024-02-28T08:32:23;17.60;;;16.30;;
15281;SDS011;7742;44.320;19.820;2024-02-28T08:34:50;17.13;;;15.83;;
15281;SDS011;7742;44.320;19.820;2024-02-28T08:37:19;18.57;;;17.17;;
15281;SDS011;7742;44.320;19.820;2024-02-28T08:39:48;18.93;;;17.23;;
15281;SDS011;7742;44.320;19.820;2024-02-28T08:42:15;17.03;;;15.80;;
15281;SDS011;7742;44.320;19.820;2024-02-28T08:44:41;16.40;;;14.93;;
15281;SDS011;7742;44.320;19.820;2024-02-28T08:47:08;17.13;;;15.83;;
15281;SDS011;7742;44.320;19.820;2024-02-28T08:49:38;18.60;;;16.87;;
15281;SDS011;7742;44.320;19.820;2024-02-28T08:52:05;18.10;;;16.33;;
15281;SDS011;7742;44.320;19.820;2024-02-28T08:54:32;17.77;;;16.43;;
15281;SDS011;7742;44.320;19.820;2024-02-28T08:57:01;17.70;;;16.20;;
15281;SDS011;7742;44.320;19.820;2024-02-28T08:59:28;17.50;;;16.07;;
15281;SDS011;7742;44.320;19.820;2024-02-28T09:01:55;16.70;;;15.40;;
15281;SDS011;7742;44.320;19.820;2024-02-28T09:04:22;16.43;;;15.13;;
15281;SDS011;7742;44.320;19.820;2024-02-28T09:06:49;18.00;;;16.53;;
15281;SDS011;7742;44.320;19.820;2024-02-28T09:09:18;17.83;;;16.43;;
15281;SDS011;7742;44.320;19.820;2024-02-28T09:11:45;18.77;;;17.17;;
15281;SDS011;7742;44.320;19.820;2024-02-28T09:14:13;18.50;;;16.90;;
15281;SDS011;7742;44.320;19.820;2024-02-28T09:16:40;17.33;;;15.90;;
15281;SDS011;7742;44.320;19.820;2024-02-28T09:19:07;17.10;;;15.80;;
15281;SDS011;7742;44.320;19.820;2024-02-28T09:21:34;16.60;;;15.37;;
15281;SDS011;7742;44.320;19.820;2024-02-28T09:24:01;15.60;;;14.27;;
15281;SDS011;7742;44.320;19.820;2024-02-28T09:26:28;15.93;;;14.33;;
15281;SDS011;7742;44.320;19.820;2024-02-28T09:28:55;18.43;;;16.77;;
15281;SDS011;7742;44.320;19.820;2024-02-28T09:31:23;18.83;;;17.03;;
15281;SDS011;7742;44.320;19.820;2024-02-28T09:33:50;18.23;;;16.90;;
15281;SDS011;7742;44.320;19.820;2024-02-28T09:36:18;18.33;;;16.83;;
15281;SDS011;7742;44.320;19.820;2024-02-28T09:38:45;17.57;;;15.70;;
15281;SDS011;7742;44.320;19.820;2024-02-28T09:41:14;17.17;;;15.37;;
15281;SDS011;7742;44.320;19.820;2024-02-28T09:43:41;16.43;;;15.23;;
15281;SDS011;7742;44.320;19.820;2024-02-28T09:46:08;17.87;;;16.47;;
15281;SDS011;7742;44.320;19.820;2024-02-28T09:48:39;17.30;;;15.90;;
15281;SDS011;7742;44.320;19.820;2024-02-28T09:51:06;18.67;;;17.37;;
15281;SDS011;7742;44.320;19.820;2024-02-28T09:53:34;17.27;;;15.87;;
15281;SDS011;7742;44.320;19.820;2024-02-28T09:56:01;14.53;;;13.33;;
15281;SDS011;7742;44.320;19.820;2024-02-28T09:58:28;15.40;;;14.20;;
15281;SDS011;7742;44.320;19.820;2024-02-28T10:00:58;16.43;;;15.33;;
15281;SDS011;7742;44.320;19.820;2024-02-28T10:03:25;15.37;;;14.47;;
15281;SDS011;7742;44.320;19.820;2024-02-28T10:05:54;17.57;;;16.20;;
15281;SDS011;7742;44.320;19.820;2024-02-28T10:08:21;17.07;;;15.87;;
15281;SDS011;7742;44.320;19.820;2024-02-28T10:10:50;16.50;;;15.30;;
15281;SDS011;7742;44.320;19.820;2024-02-28T10:13:21;16.73;;;15.33;;
15281;SDS011;7742;44.320;19.820;2024-02-28T10:15:48;16.90;;;15.77;;
15281;SDS011;7742;44.320;19.820;2024-02-28T10:18:15;17.03;;;15.77;;
15281;SDS011;7742;44.320;19.820;2024-02-28T10:20:42;16.83;;;15.10;;
15281;SDS011;7742;44.320;19.820;2024-02-28T10:23:11;15.83;;;14.70;;
15281;SDS011;7742;44.320;19.820;2024-02-28T10:25:47;16.37;;;14.97;;
15281;SDS011;7742;44.320;19.820;2024-02-28T10:28:23;16.87;;;15.77;;
15281;SDS011;7742;44.320;19.820;2024-02-28T10:30:50;16.57;;;15.27;;
15281;SDS011;7742;44.320;19.820;2024-02-28T10:33:17;17.20;;;15.70;;
15281;SDS011;7742;44.320;19.820;2024-02-28T10:35:44;15.93;;;14.50;;
15281;SDS011;7742;44.320;19.820;2024-02-28T10:38:13;16.33;;;14.67;;
15281;SDS011;7742;44.320;19.820;2024-02-28T10:40:40;14.67;;;13.40;;
15281;SDS011;7742;44.320;19.820;2024-02-28T10:43:07;15.10;;;13.90;;
15281;SDS011;7742;44.320;19.820;2024-02-28T10:45:35;17.53;;;16.10;;
15281;SDS011;7742;44.320;19.820;2024-02-28T10:48:02;16.60;;;15.40;;
15281;SDS011;7742;44.320;19.820;2024-02-28T10:50:30;16.10;;;14.90;;
15281;SDS011;7742;44.320;19.820;2024-02-28T10:52:58;15.10;;;14.00;;
15281;SDS011;7742;44.320;19.820;2024-02-28T10:55:30;17.60;;;16.30;;
15281;SDS011;7742;44.320;19.820;2024-02-28T10:58:00;17.63;;;16.37;;
15281;SDS011;7742;44.320;19.820;2024-02-28T11:00:28;18.10;;;16.60;;
15281;SDS011;7742;44.320;19.820;2024-02-28T11:02:56;16.23;;;14.77;;
15281;SDS011;7742;44.320;19.820;2024-02-28T11:05:34;17.93;;;16.57;;
15281;SDS011;7742;44.320;19.820;2024-02-28T11:08:01;18.43;;;17.03;;
15281;SDS011;7742;44.320;19.820;2024-02-28T11:10:32;17.97;;;16.67;;
15281;SDS011;7742;44.320;19.820;2024-02-28T11:13:01;18.40;;;16.27;;
15281;SDS011;7742;44.320;19.820;2024-02-28T11:15:28;21.33;;;16.10;;
15281;SDS011;7742;44.320;19.820;2024-02-28T11:17:55;16.50;;;15.10;;
15281;SDS011;7742;44.320;19.820;2024-02-28T11:20:33;17.47;;;15.83;;
15281;SDS011;7742;44.320;19.820;2024-02-28T11:23:01;16.97;;;15.57;;
15281;SDS011;7742;44.320;19.820;2024-02-28T11:25:28;17.07;;;15.47;;
15281;SDS011;7742;44.320;19.820;2024-02-28T11:27:57;16.93;;;15.13;;
15281;SDS011;7742;44.320;19.820;2024-02-28T11:30:25;16.63;;;15.50;;
15281;SDS011;7742;44.320;19.820;2024-02-28T11:32:53;15.13;;;13.83;;
15281;SDS011;7742;44.320;19.820;2024-02-28T11:35:24;17.10;;;15.93;;
15281;SDS011;7742;44.320;19.820;2024-02-28T11:41:24;17.13;;;15.33;;
15281;SDS011;7742;44.320;19.820;2024-02-28T11:43:54;16.10;;;14.80;;
15281;SDS011;7742;44.320;19.820;2024-02-28T11:46:21;17.60;;;15.87;;
15281;SDS011;7742;44.320;19.820;2024-02-28T11:48:48;16.93;;;15.30;;
15281;SDS011;7742;44.320;19.820;2024-02-28T11:51:15;16.20;;;14.67;;
15281;SDS011;7742;44.320;19.820;2024-02-28T11:53:42;15.73;;;13.23;;
15281;SDS011;7742;44.320;19.820;2024-02-28T11:56:09;16.83;;;12.70;;
15281;SDS011;7742;44.320;19.820;2024-02-28T11:58:35;16.90;;;14.63;;
15281;SDS011;7742;44.320;19.820;2024-02-28T12:01:04;16.10;;;14.30;;
15281;SDS011;7742;44.320;19.820;2024-02-28T12:03:31;16.50;;;14.90;;
15281;SDS011;7742;44.320;19.820;2024-02-28T12:05:58;15.77;;;14.23;;
15281;SDS011;7742;44.320;19.820;2024-02-28T12:08:25;16.37;;;14.67;;
15281;SDS011;7742;44.320;19.820;2024-02-28T12:10:52;14.40;;;12.90;;
15281;SDS011;7742;44.320;19.820;2024-02-28T12:13:19;15.57;;;14.13;;
15281;SDS011;7742;44.320;19.820;2024-02-28T12:15:46;16.73;;;14.97;;
15281;SDS011;7742;44.320;19.820;2024-02-28T12:18:16;16.67;;;15.17;;
15281;SDS011;7742;44.320;19.820;2024-02-28T12:20:42;17.27;;;15.37;;
15281;SDS011;7742;44.320;19.820;2024-02-28T12:23:10;16.00;;;14.50;;
15281;SDS011;7742;44.320;19.820;2024-02-28T12:25:37;16.53;;;14.20;;
15281;SDS011;7742;44.320;19.820;2024-02-28T12:28:05;15.90;;;14.40;;
15281;SDS011;7742;44.320;19.820;2024-02-28T12:30:39;17.10;;;15.47;;
15281;SDS011;7742;44.320;19.820;2024-02-28T12:33:06;17.23;;;15.20;;
15281;SDS011;7742;44.320;19.820;2024-02-28T12:35:34;16.60;;;14.90;;
15281;SDS011;7742;44.320;19.820;2024-02-28T12:38:02;16.47;;;14.60;;
15281;SDS011;7742;44.320;19.820;2024-02-28T12:40:29;18.37;;;17.00;;
15281;SDS011;7742;44.320;19.820;2024-02-28T12:42:56;17.60;;;16.20;;
15281;SDS011;7742;44.320;19.820;2024-02-28T12:45:23;17.40;;;16.10;;
15281;SDS011;7742;44.320;19.820;2024-02-28T12:47:50;17.83;;;16.00;;
15281;SDS011;7742;44.320;19.820;2024-02-28T12:50:18;17.70;;;16.10;;
15281;SDS011;7742;44.320;19.820;2024-02-28T12:52:48;17.77;;;15.90;;
15281;SDS011;7742;44.320;19.820;2024-02-28T12:55:18;17.10;;;15.40;;
15281;SDS011;7742;44.320;19.820;2024-02-28T12:57:45;16.60;;;14.97;;
15281;SDS011;7742;44.320;19.820;2024-02-28T13:00:12;16.10;;;14.80;;
15281;SDS011;7742;44.320;19.820;2024-02-28T13:02:39;17.40;;;15.77;;
15281;SDS011;7742;44.320;19.820;2024-02-28T13:05:07;17.57;;;16.13;;
15281;SDS011;7742;44.320;19.820;2024-02-28T13:07:34;18.57;;;17.23;;
15281;SDS011;7742;44.320;19.820;2024-02-28T13:10:03;18.10;;;16.60;;
15281;SDS011;7742;44.320;19.820;2024-02-28T13:12:30;17.63;;;15.93;;
15281;SDS011;7742;44.320;19.820;2024-02-28T13:14:57;18.70;;;17.20;;
15281;SDS011;7742;44.320;19.820;2024-02-28T13:17:24;22.10;;;20.03;;
15281;SDS011;7742;44.320;19.820;2024-02-28T13:19:51;21.10;;;19.53;;
15281;SDS011;7742;44.320;19.820;2024-02-28T13:22:18;20.10;;;18.23;;
15281;SDS011;7742;44.320;19.820;2024-02-28T13:24:45;19.10;;;17.37;;
15281;SDS011;7742;44.320;19.820;2024-02-28T13:27:13;19.97;;;18.27;;
15281;SDS011;7742;44.320;19.820;2024-02-28T13:29:40;20.77;;;18.87;;
15281;SDS011;7742;44.320;19.820;2024-02-28T13:32:07;19.17;;;17.43;;
15281;SDS011;7742;44.320;19.820;2024-02-28T13:34:34;19.33;;;17.30;;
15281;SDS011;7742;44.320;19.820;2024-02-28T13:37:01;18.00;;;16.50;;
15281;SDS011;7742;44.320;19.820;2024-02-28T13:39:28;20.27;;;18.40;;
15281;SDS011;7742;44.320;19.820;2024-02-28T13:41:55;21.40;;;19.40;;
15281;SDS011;7742;44.320;19.820;2024-02-28T13:44:24;18.57;;;17.07;;
15281;SDS011;7742;44.320;19.820;2024-02-28T13:46:51;19.83;;;18.10;;
15281;SDS011;7742;44.320;19.820;2024-02-28T13:49:18;18.93;;;17.07;;
15281;SDS011;7742;44.320;19.820;2024-02-28T13:51:45;18.80;;;17.30;;
15281;SDS011;7742;44.320;19.820;2024-02-28T13:54:13;17.67;;;15.97;;
15281;SDS011;7742;44.320;19.820;2024-02-28T13:56:40;17.13;;;15.83;;
15281;SDS011;7742;44.320;19.820;2024-02-28T13:59:07;19.30;;;17.60;;
15281;SDS011;7742;44.320;19.820;2024-02-28T14:01:37;18.80;;;17.23;;
15281;SDS011;7742;44.320;19.820;2024-02-28T14:04:04;18.77;;;16.93;;
15281;SDS011;7742;44.320;19.820;2024-02-28T14:06:31;18.50;;;16.90;;
15281;SDS011;7742;44.320;19.820;2024-02-28T14:08:58;17.90;;;16.30;;
15281;SDS011;7742;44.320;19.820;2024-02-28T14:11:24;20.57;;;18.83;;
15281;SDS011;7742;44.320;19.820;2024-02-28T14:13:51;18.17;;;16.37;;
15281;SDS011;7742;44.320;19.820;2024-02-28T14:16:18;18.70;;;17.00;;
15281;SDS011;7742;44.320;19.820;2024-02-28T14:18:47;18.57;;;17.07;;
15281;SDS011;7742;44.320;19.820;2024-02-28T14:21:14;18.87;;;16.97;;
15281;SDS011;7742;44.320;19.820;2024-02-28T14:23:41;18.07;;;16.47;;
15281;SDS011;7742;44.320;19.820;2024-02-28T14:26:08;17.20;;;15.53;;
15281;SDS011;7742;44.320;19.820;2024-02-28T14:28:35;18.23;;;16.83;;
15281;SDS011;7742;44.320;19.820;2024-02-28T14:31:02;20.40;;;18.90;;